createdAt,value
2017-11-21T00:00:17.176Z,36.47
2017-11-21T00:02:44.852Z,35.17
2017-11-21T00:05:12.565Z,34.03
2017-11-21T00:07:40.228Z,33.77
2017-11-21T00:10:07.889Z,34.90
2017-11-21T00:12:35.622Z,35.07
2017-11-21T00:15:03.287Z,35.00
2017-11-21T00:17:30.984Z,31.97
2017-11-21T00:19:58.649Z,31.57
2017-11-21T00:22:32.152Z,31.77
2017-11-21T00:24:59.820Z,33.97
2017-11-21T00:27:27.529Z,32.80
2017-11-21T00:29:55.129Z,32.00
2017-11-21T00:32:22.820Z,33.53
2017-11-21T00:34:50.414Z,32.37
2017-11-21T00:37:18.096Z,33.60
2017-11-21T00:39:45.743Z,32.80
2017-11-21T00:42:13.450Z,32.77
2017-11-21T00:44:41.114Z,31.60
2017-11-21T00:47:08.808Z,33.33
2017-11-21T00:49:36.483Z,35.27
2017-11-21T00:52:04.230Z,31.00
2017-11-21T00:54:31.901Z,30.00
2017-11-21T00:56:59.612Z,29.97
2017-11-21T00:59:27.273Z,33.70
2017-11-21T01:01:54.970Z,32.83
2017-11-21T01:04:22.636Z,34.57
2017-11-21T01:06:50.304Z,32.80
2017-11-21T01:09:18.007Z,31.03
2017-11-21T01:11:45.679Z,31.70
2017-11-21T01:14:13.382Z,33.77
2017-11-21T01:16:41.035Z,32.27
2017-11-21T01:19:08.747Z,34.60
2017-11-21T01:21:36.417Z,29.77
2017-11-21T01:24:04.114Z,33.23
2017-11-21T01:26:31.772Z,35.07
2017-11-21T01:28:59.479Z,32.60
2017-11-21T01:31:27.147Z,32.87
2017-11-21T01:33:54.839Z,32.80
2017-11-21T01:36:22.492Z,30.73
2017-11-21T01:38:50.119Z,32.30
2017-11-21T01:41:17.783Z,32.47
2017-11-21T01:43:45.479Z,29.30
2017-11-21T01:46:13.161Z,34.63
2017-11-21T01:48:40.844Z,31.83
2017-11-21T01:51:08.505Z,31.77
2017-11-21T01:53:36.254Z,33.60
2017-11-21T01:56:03.908Z,31.70
2017-11-21T01:58:31.556Z,29.50
2017-11-21T02:00:59.225Z,26.73
2017-11-21T02:03:26.879Z,32.37
2017-11-21T02:05:54.584Z,37.20
2017-11-21T02:08:22.269Z,31.77
2017-11-21T02:10:49.966Z,30.70
2017-11-21T02:13:17.560Z,31.43
2017-11-21T02:15:45.263Z,31.90
2017-11-21T02:18:12.930Z,29.70
2017-11-21T02:20:40.686Z,33.37
2017-11-21T02:23:08.344Z,29.50
2017-11-21T02:25:36.058Z,35.13
2017-11-21T02:28:03.731Z,37.73
2017-11-21T02:30:31.445Z,29.53
2017-11-21T02:32:59.063Z,31.43
2017-11-21T02:35:26.772Z,36.37
2017-11-21T02:37:54.445Z,28.93
2017-11-21T02:40:22.186Z,38.80
2017-11-21T02:42:49.913Z,29.63
2017-11-21T02:45:17.618Z,32.00
2017-11-21T02:47:45.260Z,32.37
2017-11-21T02:50:12.921Z,31.10
2017-11-21T02:52:40.677Z,32.53
2017-11-21T02:55:08.365Z,35.20
2017-11-21T02:57:36.064Z,32.20
2017-11-21T03:00:03.667Z,32.10
2017-11-21T03:02:31.357Z,33.37
2017-11-21T03:04:59.023Z,35.30
2017-11-21T03:07:26.711Z,35.07
2017-11-21T03:09:54.364Z,33.30
2017-11-21T03:12:22.085Z,36.40
2017-11-21T03:14:49.725Z,33.83
2017-11-21T03:17:17.415Z,36.63
2017-11-21T03:19:45.084Z,33.13
2017-11-21T03:22:24.615Z,34.73
2017-11-21T03:25:03.857Z,34.60
2017-11-21T03:27:34.237Z,33.60
2017-11-21T03:30:01.911Z,37.57
2017-11-21T03:32:29.610Z,39.73
2017-11-21T03:34:57.278Z,39.90
2017-11-21T03:37:24.999Z,30.37
2017-11-21T03:39:52.656Z,32.30
2017-11-21T03:42:20.315Z,32.83
2017-11-21T03:44:48.030Z,30.77
2017-11-21T03:47:15.682Z,34.00
2017-11-21T03:49:43.387Z,32.90
2017-11-21T03:52:11.089Z,34.80
2017-11-21T03:54:38.798Z,34.00
2017-11-21T03:57:06.466Z,31.47
2017-11-21T03:59:34.173Z,34.70
2017-11-21T04:02:01.840Z,30.07
2017-11-21T04:04:29.549Z,39.47
2017-11-21T04:06:57.231Z,33.17
2017-11-21T04:09:24.925Z,32.10
2017-11-21T04:11:52.524Z,29.90
2017-11-21T04:14:20.254Z,29.97
2017-11-21T04:16:47.915Z,32.90
2017-11-21T04:19:15.554Z,35.27
2017-11-21T04:21:43.239Z,34.10
2017-11-21T04:24:10.965Z,37.60
2017-11-21T04:26:38.654Z,33.10
2017-11-21T04:29:06.345Z,38.13
2017-11-21T04:31:34.038Z,36.03
2017-11-21T04:34:01.689Z,35.20
2017-11-21T04:36:29.395Z,31.03
2017-11-21T04:38:57.065Z,31.83
2017-11-21T04:41:24.766Z,32.70
2017-11-21T04:43:52.425Z,33.40
2017-11-21T04:46:20.124Z,34.07
2017-11-21T04:48:47.782Z,31.33
2017-11-21T04:51:15.489Z,32.60
2017-11-21T04:53:43.188Z,31.50
2017-11-21T04:56:10.872Z,33.33
2017-11-21T04:58:38.543Z,37.40
2017-11-21T05:01:06.235Z,32.87
2017-11-21T05:03:33.897Z,31.27
2017-11-21T05:06:01.604Z,31.27
2017-11-21T05:08:29.267Z,28.00
2017-11-21T05:10:56.978Z,29.93
2017-11-21T05:13:24.642Z,32.53
2017-11-21T05:15:52.311Z,29.13
2017-11-21T05:18:20.019Z,29.80
2017-11-21T05:20:47.696Z,31.83
2017-11-21T05:23:15.400Z,27.73
2017-11-21T05:25:43.069Z,31.03
2017-11-21T05:28:10.707Z,33.30
2017-11-21T05:30:38.380Z,30.47
2017-11-21T05:33:18.021Z,29.43
2017-11-21T05:35:45.690Z,31.17
2017-11-21T05:38:13.327Z,29.07
2017-11-21T05:40:40.984Z,25.93
2017-11-21T05:43:08.624Z,29.37
2017-11-21T05:45:36.228Z,32.50
2017-11-21T05:48:03.879Z,30.77
2017-11-21T05:50:31.481Z,28.80
2017-11-21T05:52:59.133Z,28.50
2017-11-21T05:55:26.758Z,26.37
2017-11-21T05:57:54.347Z,26.20
2017-11-21T06:00:22.008Z,24.27
2017-11-21T06:02:49.606Z,24.70
2017-11-21T06:05:17.284Z,27.63
2017-11-21T06:07:44.897Z,25.30
2017-11-21T06:10:12.571Z,30.57
2017-11-21T06:12:40.167Z,24.23
2017-11-21T06:15:07.823Z,26.63
2017-11-21T06:17:35.425Z,29.40
2017-11-21T06:20:03.141Z,27.13
2017-11-21T06:22:30.804Z,27.53
2017-11-21T06:24:58.518Z,24.93
2017-11-21T06:27:26.199Z,23.53
2017-11-21T06:29:53.908Z,27.50
2017-11-21T06:32:21.581Z,23.60
2017-11-21T06:34:49.268Z,27.23
2017-11-21T06:37:16.938Z,23.13
2017-11-21T06:39:44.662Z,25.73
2017-11-21T06:42:12.332Z,28.37
2017-11-21T06:44:40.026Z,28.77
2017-11-21T06:47:07.718Z,22.40
2017-11-21T06:49:35.398Z,25.83
2017-11-21T06:52:03.138Z,26.37
2017-11-21T06:54:30.795Z,24.50
2017-11-21T06:56:58.513Z,28.20
2017-11-21T06:59:26.184Z,141.73
2017-11-21T07:01:53.884Z,29.60
2017-11-21T07:04:21.547Z,31.77
2017-11-21T07:06:49.248Z,27.20
2017-11-21T07:09:16.936Z,29.17
2017-11-21T07:11:44.638Z,25.83
2017-11-21T07:14:12.315Z,24.83
2017-11-21T07:16:40.018Z,25.93
2017-11-21T07:19:07.683Z,29.60
2017-11-21T07:21:35.400Z,32.47
2017-11-21T07:24:03.077Z,27.60
2017-11-21T07:26:30.804Z,28.27
2017-11-21T07:28:58.476Z,31.80
2017-11-21T07:31:26.199Z,25.87
2017-11-21T07:33:53.863Z,28.40
2017-11-21T07:36:21.581Z,26.70
2017-11-21T07:38:49.186Z,36.93
2017-11-21T07:41:16.872Z,25.23
2017-11-21T07:43:44.577Z,26.97
2017-11-21T07:46:12.251Z,28.40
2017-11-21T07:48:39.953Z,27.40
2017-11-21T07:51:07.616Z,31.40
2017-11-21T07:53:35.380Z,25.93
2017-11-21T07:56:03.065Z,23.33
2017-11-21T07:58:30.782Z,23.10
2017-11-21T08:00:58.440Z,26.63
2017-11-21T08:03:26.076Z,26.87
2017-11-21T08:05:53.744Z,32.33
2017-11-21T08:08:21.462Z,25.30
2017-11-21T08:10:49.147Z,27.53
2017-11-21T08:13:16.882Z,24.30
2017-11-21T08:15:44.563Z,30.13
2017-11-21T08:18:12.307Z,28.93
2017-11-21T08:20:39.910Z,28.23
2017-11-21T08:23:07.574Z,25.87
2017-11-21T08:25:35.196Z,28.20
2017-11-21T08:28:02.857Z,27.00
2017-11-21T08:30:30.467Z,29.07
2017-11-21T08:32:58.117Z,30.30
2017-11-21T08:35:25.797Z,32.03
2017-11-21T08:37:55.316Z,30.97
2017-11-21T08:40:23.133Z,26.23
2017-11-21T08:42:50.893Z,26.97
2017-11-21T08:45:18.530Z,31.37
2017-11-21T08:47:46.219Z,22.60
2017-11-21T08:50:13.865Z,26.67
2017-11-21T08:52:41.767Z,24.80
2017-11-21T08:55:09.418Z,25.70
2017-11-21T08:57:37.028Z,22.37
2017-11-21T09:00:04.667Z,25.07
2017-11-21T09:02:32.313Z,24.50
2017-11-21T09:04:59.957Z,24.90
2017-11-21T09:07:27.631Z,24.10
2017-11-21T09:09:55.302Z,22.70
2017-11-21T09:12:23.009Z,25.50
2017-11-21T09:14:50.708Z,23.30
2017-11-21T09:17:18.397Z,22.90
2017-11-21T09:19:46.095Z,19.23
2017-11-21T09:22:13.763Z,26.90
2017-11-21T09:24:41.401Z,24.07
2017-11-21T09:27:09.961Z,25.20
2017-11-21T09:29:37.676Z,67.27
2017-11-21T09:32:05.315Z,40.27
2017-11-21T09:34:32.964Z,22.83
2017-11-21T09:37:00.560Z,37.47
2017-11-21T09:39:28.233Z,23.23
2017-11-21T09:41:55.895Z,27.00
2017-11-21T09:44:23.630Z,25.27
2017-11-21T09:46:51.221Z,24.27
2017-11-21T09:49:18.913Z,23.83
2017-11-21T09:51:46.971Z,24.60
2017-11-21T09:54:14.662Z,23.80
2017-11-21T09:56:42.643Z,23.53
2017-11-21T09:59:10.356Z,22.70
2017-11-21T10:01:38.548Z,22.90
2017-11-21T10:04:06.272Z,24.97
2017-11-21T10:06:34.115Z,21.90
2017-11-21T10:09:01.944Z,22.37
2017-11-21T10:11:30.002Z,22.00
2017-11-21T10:13:57.841Z,23.23
2017-11-21T10:16:25.772Z,23.67
2017-11-21T10:18:53.577Z,23.00
2017-11-21T10:21:21.312Z,23.53
2017-11-21T10:23:49.086Z,24.97
2017-11-21T10:26:16.866Z,23.33
2017-11-21T10:28:45.609Z,20.30
2017-11-21T10:31:14.356Z,21.17
2017-11-21T10:33:42.120Z,20.57
2017-11-21T10:36:10.320Z,21.50
2017-11-21T10:38:38.026Z,20.23
2017-11-21T10:41:05.720Z,20.67
2017-11-21T10:43:33.766Z,22.13
2017-11-21T10:46:01.861Z,23.23
2017-11-21T10:48:29.605Z,23.40
2017-11-21T10:50:57.395Z,22.07
2017-11-21T10:53:25.520Z,23.97
2017-11-21T10:55:53.300Z,22.37
2017-11-21T10:58:20.942Z,22.53
2017-11-21T11:00:48.724Z,20.77
2017-11-21T11:03:16.744Z,20.53
2017-11-21T11:05:44.482Z,21.40
2017-11-21T11:08:12.628Z,23.30
2017-11-21T11:10:40.655Z,24.03
2017-11-21T11:13:10.219Z,22.90
2017-11-21T11:15:38.274Z,22.80
2017-11-21T11:18:06.039Z,22.03
2017-11-21T11:20:33.807Z,21.67
2017-11-21T11:23:01.596Z,20.77
2017-11-21T11:25:29.736Z,22.53
2017-11-21T11:27:58.527Z,22.30
2017-11-21T11:30:26.228Z,21.93
2017-11-21T11:32:54.346Z,20.40
2017-11-21T11:35:22.305Z,19.73
2017-11-21T11:37:50.057Z,23.27
2017-11-21T11:40:18.100Z,21.50
2017-11-21T11:42:45.926Z,25.40
2017-11-21T11:45:13.611Z,20.97
2017-11-21T11:47:41.416Z,20.10
2017-11-21T11:50:09.295Z,22.47
2017-11-21T11:52:37.006Z,20.30
2017-11-21T11:55:04.719Z,22.40
2017-11-21T11:57:32.715Z,19.87
2017-11-21T12:00:01.141Z,22.13
2017-11-21T12:02:29.160Z,20.47
2017-11-21T12:04:57.301Z,22.03
2017-11-21T12:07:25.147Z,18.40
2017-11-21T12:09:52.832Z,22.47
2017-11-21T12:12:21.090Z,20.30
2017-11-21T12:14:49.047Z,18.53
2017-11-21T12:17:17.576Z,23.03
2017-11-21T12:19:45.403Z,20.27
2017-11-21T12:22:13.566Z,18.50
2017-11-21T12:24:41.749Z,18.10
2017-11-21T12:27:09.766Z,25.73
2017-11-21T12:29:37.924Z,22.53
2017-11-21T12:32:06.134Z,21.43
2017-11-21T12:34:33.852Z,20.97
2017-11-21T12:37:01.595Z,19.83
2017-11-21T12:39:30.443Z,21.20
2017-11-21T12:41:58.495Z,20.80
2017-11-21T12:44:26.880Z,19.60
2017-11-21T12:46:54.753Z,23.13
2017-11-21T12:49:22.815Z,21.80
2017-11-21T12:51:50.873Z,19.03
2017-11-21T12:54:19.661Z,18.80
2017-11-21T12:56:47.514Z,19.90
2017-11-21T12:59:15.402Z,20.40
2017-11-21T13:01:43.513Z,18.03
2017-11-21T13:04:11.251Z,20.93
2017-11-21T13:06:38.921Z,18.27
2017-11-21T13:09:06.987Z,20.90
2017-11-21T13:11:34.664Z,15.20
2017-11-21T13:14:02.631Z,18.93
2017-11-21T13:16:31.577Z,22.63
2017-11-21T13:18:59.339Z,19.53
2017-11-21T13:21:27.293Z,17.03
2017-11-21T13:23:55.084Z,19.17
2017-11-21T13:26:22.832Z,19.43
2017-11-21T13:28:51.721Z,30.63
2017-11-21T13:31:19.675Z,21.83
2017-11-21T13:33:47.274Z,22.07
2017-11-21T13:36:15.201Z,34.97
2017-11-21T13:38:42.897Z,22.20
2017-11-21T13:41:11.043Z,23.90
2017-11-21T13:43:40.259Z,23.73
2017-11-21T13:46:08.194Z,37.63
2017-11-21T13:48:35.945Z,24.63
2017-11-21T13:51:04.917Z,21.97
2017-11-21T13:53:32.684Z,23.40
2017-11-21T13:56:00.575Z,23.07
2017-11-21T13:58:28.306Z,22.87
2017-11-21T14:00:56.004Z,25.33
2017-11-21T14:03:23.674Z,30.33
2017-11-21T14:05:51.438Z,24.00
2017-11-21T14:08:19.462Z,23.23
2017-11-21T14:10:47.186Z,21.80
2017-11-21T14:13:15.240Z,21.30
2017-11-21T14:15:43.013Z,22.93
2017-11-21T14:18:11.262Z,25.90
2017-11-21T14:20:39.398Z,23.53
2017-11-21T14:23:07.501Z,19.23
2017-11-21T14:25:35.679Z,21.33
2017-11-21T14:28:03.350Z,21.83
2017-11-21T14:30:31.570Z,21.40
2017-11-21T14:32:59.254Z,23.73
2017-11-21T14:35:27.228Z,19.73
2017-11-21T14:37:55.009Z,20.00
2017-11-21T14:40:22.740Z,22.97
2017-11-21T14:42:51.706Z,22.93
2017-11-21T14:45:19.713Z,24.73
2017-11-21T14:47:47.720Z,22.13
2017-11-21T14:50:15.464Z,24.20
2017-11-21T14:52:43.212Z,24.13
2017-11-21T14:55:12.239Z,22.87
2017-11-21T14:57:40.036Z,24.67
2017-11-21T15:00:07.700Z,20.83
2017-11-21T15:02:35.418Z,37.80
2017-11-21T15:05:03.178Z,42.03
2017-11-21T15:07:31.170Z,29.03
2017-11-21T15:09:58.784Z,31.53
2017-11-21T15:12:27.130Z,28.03
2017-11-21T15:14:54.797Z,36.33
2017-11-21T15:17:22.562Z,29.17
2017-11-21T15:19:50.534Z,28.70
2017-11-21T15:22:18.290Z,22.90
2017-11-21T15:24:47.086Z,39.23
2017-11-21T15:27:14.785Z,22.20
2017-11-21T15:29:43.420Z,25.60
2017-11-21T15:32:12.139Z,22.83
2017-11-21T15:34:39.912Z,21.70
2017-11-21T15:37:07.889Z,25.27
2017-11-21T15:39:35.588Z,24.47
2017-11-21T15:42:03.481Z,23.50
2017-11-21T15:44:31.298Z,20.67
2017-11-21T15:46:58.913Z,22.73
2017-11-21T15:49:26.595Z,21.90
2017-11-21T15:51:54.304Z,22.03
2017-11-21T15:54:22.466Z,23.60
2017-11-21T15:56:50.164Z,20.47
2017-11-21T15:59:18.096Z,21.43
2017-11-21T16:01:45.755Z,19.70
2017-11-21T16:04:13.535Z,21.10
2017-11-21T16:06:41.133Z,22.10
2017-11-21T16:09:08.859Z,23.07
2017-11-21T16:11:37.325Z,22.53
2017-11-21T16:14:05.482Z,18.30
2017-11-21T16:16:33.235Z,19.70
2017-11-21T16:19:01.348Z,20.47
2017-11-21T16:21:29.440Z,17.80
2017-11-21T16:23:57.431Z,23.33
2017-11-21T16:26:25.153Z,19.07
2017-11-21T16:28:53.081Z,20.20
2017-11-21T16:31:22.318Z,19.30
2017-11-21T16:33:50.316Z,18.30
2017-11-21T16:36:18.047Z,17.97
2017-11-21T16:38:45.792Z,19.43
2017-11-21T16:41:13.426Z,19.80
2017-11-21T16:43:41.424Z,18.73
2017-11-21T16:46:09.343Z,18.03
2017-11-21T16:48:36.950Z,20.37
2017-11-21T16:51:04.608Z,16.40
2017-11-21T16:53:32.307Z,17.90
2017-11-21T16:56:00.236Z,16.47
2017-11-21T16:58:28.154Z,17.10
2017-11-21T17:00:55.798Z,16.67
2017-11-21T17:03:23.447Z,18.27
2017-11-21T17:05:51.504Z,20.77
2017-11-21T17:08:19.237Z,20.30
2017-11-21T17:10:46.983Z,33.70
2017-11-21T17:13:14.670Z,18.03
2017-11-21T17:15:42.820Z,18.77
2017-11-21T17:18:10.694Z,13.47
2017-11-21T17:20:38.807Z,30.87
2017-11-21T17:23:06.881Z,15.00
2017-11-21T17:25:34.572Z,15.13
2017-11-21T17:28:02.314Z,25.30
2017-11-21T17:30:30.347Z,17.50
2017-11-21T17:32:58.139Z,16.40
2017-11-21T17:35:25.855Z,17.20
2017-11-21T17:37:54.084Z,13.90
2017-11-21T17:40:21.966Z,16.17
2017-11-21T17:42:49.628Z,17.20
2017-11-21T17:45:17.813Z,13.70
2017-11-21T17:47:45.814Z,14.20
2017-11-21T17:50:13.867Z,18.73
2017-11-21T17:52:41.604Z,13.53
2017-11-21T17:55:09.752Z,19.63
2017-11-21T17:57:37.771Z,16.83
2017-11-21T18:00:06.303Z,16.10
2017-11-21T18:02:34.444Z,15.03
2017-11-21T18:05:02.242Z,14.63
2017-11-21T18:07:30.289Z,17.40
2017-11-21T18:09:58.717Z,16.03
2017-11-21T18:12:26.337Z,19.10
2017-11-21T18:14:54.411Z,20.37
2017-11-21T18:17:22.115Z,19.70
2017-11-21T18:19:49.804Z,16.40
2017-11-21T18:22:17.478Z,16.00
2017-11-21T18:24:45.222Z,15.83
2017-11-21T18:27:13.522Z,13.93
2017-11-21T18:29:43.438Z,13.73
2017-11-21T18:32:11.546Z,14.40
2017-11-21T18:34:39.359Z,13.70
2017-11-21T18:37:07.133Z,16.23
2017-11-21T18:39:34.936Z,17.50
2017-11-21T18:42:02.748Z,14.80
2017-11-21T18:44:31.391Z,14.53
2017-11-21T18:46:59.482Z,13.23
2017-11-21T18:49:27.174Z,15.30
2017-11-21T18:51:54.865Z,13.30
2017-11-21T18:54:23.049Z,13.70
2017-11-21T18:56:51.120Z,13.90
2017-11-21T18:59:19.384Z,15.37
2017-11-21T19:01:47.983Z,13.50
2017-11-21T19:04:15.639Z,13.90
2017-11-21T19:06:43.696Z,14.80
2017-11-21T19:09:11.716Z,13.07
2017-11-21T19:11:39.421Z,13.90
2017-11-21T19:14:07.325Z,13.37
2017-11-21T19:16:36.000Z,15.27
2017-11-21T19:19:03.709Z,13.00
2017-11-21T19:21:31.675Z,14.80
2017-11-21T19:23:59.939Z,15.10
2017-11-21T19:26:28.249Z,14.77
2017-11-21T19:28:56.210Z,14.10
2017-11-21T19:31:25.695Z,14.40
2017-11-21T19:33:53.513Z,13.30
2017-11-21T19:36:21.617Z,12.93
2017-11-21T19:38:50.215Z,15.00
2017-11-21T19:41:18.203Z,13.00
2017-11-21T19:43:47.039Z,13.97
2017-11-21T19:46:15.596Z,12.80
2017-11-21T19:48:43.417Z,14.10
2017-11-21T19:51:11.131Z,11.40
2017-11-21T19:53:39.738Z,13.90
2017-11-21T19:56:07.811Z,15.17
2017-11-21T19:58:36.522Z,14.70
2017-11-21T20:01:04.483Z,12.83
2017-11-21T20:03:33.378Z,13.60
2017-11-21T20:06:02.011Z,12.70
2017-11-21T20:08:30.093Z,11.37
2017-11-21T20:10:58.583Z,13.53
2017-11-21T20:13:27.898Z,12.70
2017-11-21T20:15:57.056Z,11.83
2017-11-21T20:18:25.124Z,12.50
2017-11-21T20:20:54.934Z,11.87
2017-11-21T20:23:24.042Z,12.77
2017-11-21T20:25:52.118Z,14.70
2017-11-21T20:28:19.856Z,13.20
2017-11-21T20:30:48.644Z,13.13
2017-11-21T20:33:17.072Z,13.23
2017-11-21T20:35:46.118Z,14.20
2017-11-21T20:38:14.033Z,12.60
2017-11-21T20:40:42.768Z,11.53
2017-11-21T20:43:11.409Z,14.97
2017-11-21T20:45:39.377Z,11.50
2017-11-21T20:48:07.418Z,13.80
2017-11-21T20:50:35.401Z,13.80
2017-11-21T20:53:03.569Z,14.63
2017-11-21T20:55:31.680Z,12.87
2017-11-21T20:57:59.532Z,13.07
2017-11-21T21:00:28.453Z,13.47
2017-11-21T21:02:56.506Z,11.67
2017-11-21T21:05:24.303Z,12.90
2017-11-21T21:07:52.277Z,13.90
2017-11-21T21:10:20.504Z,14.90
2017-11-21T21:12:48.750Z,14.10
2017-11-21T21:15:16.761Z,16.97
2017-11-21T21:17:44.685Z,13.70
2017-11-21T21:20:12.633Z,13.80
2017-11-21T21:22:41.134Z,12.50
2017-11-21T21:25:09.908Z,18.17
2017-11-21T21:27:41.552Z,13.70
2017-11-21T21:30:09.570Z,15.50
2017-11-21T21:32:38.128Z,11.57
2017-11-21T21:35:05.903Z,14.77
2017-11-21T21:37:34.427Z,15.67
2017-11-21T21:40:02.459Z,11.90
2017-11-21T21:42:30.401Z,16.30
2017-11-21T21:44:58.299Z,13.83
2017-11-21T21:47:26.353Z,14.47
2017-11-21T21:49:54.482Z,14.30
2017-11-21T21:52:23.165Z,14.27
2017-11-21T21:54:51.912Z,14.60
2017-11-21T21:57:19.626Z,14.03
2017-11-21T21:59:47.676Z,14.67
2017-11-21T22:02:15.310Z,14.90
2017-11-21T22:04:43.261Z,13.40
2017-11-21T22:07:11.213Z,14.07
2017-11-21T22:09:38.927Z,13.83
2017-11-21T22:12:06.615Z,17.27
2017-11-21T22:14:34.539Z,15.87
2017-11-21T22:17:02.376Z,15.27
2017-11-21T22:19:30.377Z,12.87
2017-11-21T22:21:58.572Z,13.63
2017-11-21T22:24:26.440Z,15.73
2017-11-21T22:26:54.503Z,14.20
2017-11-21T22:29:22.782Z,13.47
2017-11-21T22:31:50.573Z,11.40
2017-11-21T22:34:18.845Z,14.30
2017-11-21T22:36:47.836Z,13.50
2017-11-21T22:39:15.643Z,12.40
2017-11-21T22:41:44.148Z,11.67
2017-11-21T22:44:11.987Z,12.50
2017-11-21T22:46:39.802Z,10.40
2017-11-21T22:49:07.440Z,9.70
2017-11-21T22:51:35.493Z,9.30
2017-11-21T22:54:03.522Z,11.17
2017-11-21T22:56:31.301Z,12.30
2017-11-21T22:58:59.026Z,10.07
2017-11-21T23:01:27.141Z,9.30
2017-11-21T23:03:54.880Z,9.30
2017-11-21T23:06:22.922Z,10.67
2017-11-21T23:08:52.484Z,7.57
2017-11-21T23:11:20.437Z,7.67
2017-11-21T23:13:48.136Z,11.83
2017-11-21T23:16:16.305Z,6.77
2017-11-21T23:18:45.254Z,6.93
2017-11-21T23:21:13.196Z,8.83
2017-11-21T23:23:41.292Z,8.90
2017-11-21T23:26:09.271Z,6.87
2017-11-21T23:28:37.582Z,7.70
2017-11-21T23:31:05.701Z,5.73
2017-11-21T23:33:33.343Z,9.80
2017-11-21T23:36:01.115Z,4.03
2017-11-21T23:38:28.845Z,5.33
2017-11-21T23:40:56.902Z,4.33
2017-11-21T23:43:24.602Z,4.80
2017-11-21T23:45:52.278Z,4.60
2017-11-21T23:48:20.086Z,5.20
2017-11-21T23:50:47.744Z,4.17
2017-11-21T23:53:16.767Z,5.13
2017-11-21T23:55:45.473Z,4.73
2017-11-21T23:58:13.496Z,3.80
